createdAt,value
2023-02-12T00:01:20.311Z,42.70
2023-02-12T00:03:47.197Z,42.47
2023-02-12T00:06:15.894Z,42.60
2023-02-12T00:08:42.987Z,44.40
2023-02-12T00:11:14.982Z,41.47
2023-02-12T00:13:42.392Z,40.20
2023-02-12T00:16:11.956Z,39.20
2023-02-12T00:18:38.796Z,36.15
2023-02-12T00:21:06.149Z,36.47
2023-02-12T00:23:32.824Z,35.75
2023-02-12T00:25:59.646Z,40.08
2023-02-12T00:28:27.131Z,39.80
2023-02-12T00:30:55.520Z,40.92
2023-02-12T00:33:22.277Z,39.25
2023-02-12T00:35:56.688Z,38.72
2023-02-12T00:38:23.649Z,42.63
2023-02-12T00:40:50.484Z,38.78
2023-02-12T00:43:17.322Z,37.35
2023-02-12T00:45:47.586Z,38.88
2023-02-12T00:48:15.172Z,42.50
2023-02-12T00:50:44.077Z,41.20
2023-02-12T00:53:10.796Z,36.75
2023-02-12T00:55:37.577Z,37.55
2023-02-12T00:58:04.310Z,37.22
2023-02-12T01:00:31.006Z,37.88
2023-02-12T01:02:57.726Z,38.22
2023-02-12T01:05:25.227Z,39.15
2023-02-12T01:07:53.520Z,38.25
2023-02-12T01:10:20.954Z,35.38
2023-02-12T01:12:48.356Z,38.75
2023-02-12T01:15:16.360Z,37.33
2023-02-12T01:17:43.424Z,40.70
2023-02-12T01:20:14.544Z,38.50
2023-02-12T01:22:41.442Z,36.20
2023-02-12T01:25:08.453Z,43.28
2023-02-12T01:27:35.220Z,43.65
2023-02-12T01:30:02.175Z,42.03
2023-02-12T01:32:29.237Z,42.20
2023-02-12T01:34:55.959Z,43.10
2023-02-12T01:37:22.689Z,45.30
2023-02-12T01:39:49.466Z,44.25
2023-02-12T01:42:18.903Z,44.50
2023-02-12T01:45:14.184Z,44.17
2023-02-12T01:47:42.444Z,47.60
2023-02-12T01:50:17.566Z,46.00
2023-02-12T01:52:47.471Z,43.45
2023-02-12T01:55:14.653Z,44.20
2023-02-12T01:57:44.130Z,45.55
2023-02-12T02:00:14.580Z,43.42
2023-02-12T02:02:43.763Z,44.30
2023-02-12T02:05:13.227Z,48.55
2023-02-12T02:07:40.710Z,43.67
2023-02-12T02:10:08.472Z,44.78
2023-02-12T02:12:54.400Z,44.42
2023-02-12T02:15:21.137Z,47.80
2023-02-12T02:18:23.076Z,46.30
2023-02-12T02:21:26.753Z,46.05
2023-02-12T02:24:31.695Z,41.28
2023-02-12T02:27:23.078Z,42.50
2023-02-12T02:30:14.623Z,40.30
2023-02-12T02:32:44.301Z,41.53
2023-02-12T02:35:15.570Z,41.33
2023-02-12T02:37:42.201Z,41.65
2023-02-12T02:40:14.993Z,41.03
2023-02-12T02:42:47.597Z,40.28
2023-02-12T02:45:28.656Z,39.30
2023-02-12T02:48:10.644Z,39.30
2023-02-12T02:50:41.120Z,38.03
2023-02-12T02:53:14.483Z,40.13
2023-02-12T02:55:48.221Z,39.17
2023-02-12T02:58:18.898Z,40.42
2023-02-12T03:01:02.297Z,40.00
2023-02-12T03:06:09.532Z,40.10
2023-02-12T03:08:40.266Z,40.72
2023-02-12T03:11:14.985Z,40.10
2023-02-12T03:13:51.226Z,34.05
2023-02-12T03:16:21.672Z,32.67
2023-02-12T03:19:10.347Z,33.53
2023-02-12T03:21:58.800Z,37.92
2023-02-12T03:24:56.373Z,37.65
2023-02-12T03:27:36.497Z,35.28
2023-02-12T03:30:04.230Z,36.60
2023-02-12T03:32:39.002Z,38.08
2023-02-12T03:35:24.909Z,39.58
2023-02-12T03:38:03.407Z,41.08
2023-02-12T03:40:35.253Z,37.35
2023-02-12T03:43:04.620Z,40.25
2023-02-12T03:45:49.485Z,36.20
2023-02-12T03:48:31.330Z,38.17
2023-02-12T03:51:02.909Z,36.15
2023-02-12T03:53:30.046Z,36.90
2023-02-12T03:56:02.664Z,38.80
2023-02-12T03:58:30.617Z,38.88
2023-02-12T04:00:57.571Z,36.95
2023-02-12T04:03:25.060Z,34.00
2023-02-12T04:05:51.736Z,36.78
2023-02-12T04:08:18.512Z,34.65
2023-02-12T04:11:08.136Z,33.60
2023-02-12T04:14:01.606Z,32.25
2023-02-12T04:16:40.222Z,33.00
2023-02-12T04:19:08.004Z,34.00
2023-02-12T04:21:50.022Z,31.30
2023-02-12T04:24:19.939Z,33.80
2023-02-12T04:26:55.693Z,31.52
2023-02-12T04:29:32.671Z,32.33
2023-02-12T04:32:07.875Z,31.15
2023-02-12T04:34:43.538Z,30.85
2023-02-12T04:37:17.765Z,30.65
2023-02-12T04:39:45.016Z,32.10
2023-02-12T04:42:11.910Z,31.65
2023-02-12T04:44:41.013Z,31.45
2023-02-12T04:47:07.895Z,33.33
2023-02-12T04:49:34.565Z,32.47
2023-02-12T04:52:01.385Z,31.85
2023-02-12T04:54:28.098Z,32.00
2023-02-12T04:56:54.794Z,35.53
2023-02-12T04:59:21.572Z,30.80
2023-02-12T05:01:48.373Z,32.95
2023-02-12T05:04:16.701Z,31.20
2023-02-12T05:06:44.388Z,30.13
2023-02-12T05:09:14.877Z,32.15
2023-02-12T05:11:41.711Z,32.60
2023-02-12T05:14:08.508Z,30.33
2023-02-12T05:16:35.204Z,29.40
2023-02-12T05:19:02.061Z,28.17
2023-02-12T05:21:28.786Z,28.55
2023-02-12T05:23:55.524Z,28.55
2023-02-12T05:26:22.706Z,31.88
2023-02-12T05:28:49.585Z,28.27
2023-02-12T05:31:21.131Z,27.00
2023-02-12T05:33:49.184Z,28.20
2023-02-12T05:36:18.097Z,27.45
2023-02-12T05:38:44.821Z,27.52
2023-02-12T05:41:12.764Z,29.85
2023-02-12T05:43:40.341Z,26.92
2023-02-12T05:46:07.651Z,27.48
2023-02-12T05:48:34.857Z,28.45
2023-02-12T05:51:03.750Z,27.92
2023-02-12T05:53:30.856Z,27.20
2023-02-12T05:56:17.277Z,26.52
2023-02-12T05:58:46.748Z,28.65
2023-02-12T06:01:21.924Z,28.83
2023-02-12T06:03:48.723Z,27.58
2023-02-12T06:06:15.836Z,25.92
2023-02-12T06:08:42.558Z,26.88
2023-02-12T06:11:12.849Z,29.85
2023-02-12T06:13:39.938Z,28.85
2023-02-12T06:16:07.194Z,26.95
2023-02-12T06:18:36.868Z,27.88
2023-02-12T06:21:04.240Z,26.35
2023-02-12T06:23:30.997Z,26.27
2023-02-12T06:25:58.102Z,27.83
2023-02-12T06:28:25.257Z,25.13
2023-02-12T06:30:52.165Z,26.75
2023-02-12T06:33:19.006Z,25.48
2023-02-12T06:35:45.747Z,24.85
2023-02-12T06:38:12.517Z,25.30
2023-02-12T06:40:39.272Z,25.25
2023-02-12T06:43:06.009Z,25.83
2023-02-12T06:45:33.749Z,24.83
2023-02-12T06:48:00.445Z,24.65
2023-02-12T06:50:27.423Z,24.25
2023-02-12T06:52:54.082Z,24.35
2023-02-12T06:55:20.816Z,25.30
2023-02-12T06:57:47.473Z,24.02
2023-02-12T07:00:14.326Z,26.15
2023-02-12T07:02:41.224Z,25.35
2023-02-12T07:05:08.046Z,25.13
2023-02-12T07:07:34.820Z,26.38
2023-02-12T07:10:01.600Z,25.40
2023-02-12T07:12:28.440Z,24.35
2023-02-12T07:14:55.103Z,24.27
2023-02-12T07:17:21.745Z,24.70
2023-02-12T07:19:48.392Z,27.20
2023-02-12T07:22:15.137Z,25.85
2023-02-12T07:24:41.975Z,25.40
2023-02-12T07:27:08.687Z,28.30
2023-02-12T07:29:35.441Z,25.60
2023-02-12T07:32:02.179Z,26.67
2023-02-12T07:34:28.880Z,28.13
2023-02-12T07:36:55.525Z,30.20
2023-02-12T07:39:22.300Z,27.50
2023-02-12T07:41:49.143Z,27.70
2023-02-12T07:44:15.820Z,27.65
2023-02-12T07:46:47.701Z,28.02
2023-02-12T07:49:20.080Z,28.52
2023-02-12T07:51:47.705Z,28.30
2023-02-12T07:54:14.952Z,28.67
2023-02-12T07:56:43.275Z,26.77
2023-02-12T07:59:12.029Z,27.20
2023-02-12T08:01:41.092Z,29.45
2023-02-12T08:04:10.474Z,27.67
2023-02-12T08:06:42.264Z,28.90
2023-02-12T08:09:11.046Z,29.02
2023-02-12T08:11:38.774Z,30.13
2023-02-12T08:14:06.029Z,29.05
2023-02-12T08:16:37.187Z,29.70
2023-02-12T08:19:16.555Z,28.55
2023-02-12T08:21:44.498Z,28.90
2023-02-12T08:24:11.826Z,26.92
2023-02-12T08:26:39.897Z,27.23
2023-02-12T08:29:12.544Z,31.20
2023-02-12T08:31:44.368Z,30.95
2023-02-12T08:34:32.790Z,28.80
2023-02-12T08:37:00.128Z,29.02
2023-02-12T08:39:29.150Z,29.88
2023-02-12T08:41:56.709Z,30.30
2023-02-12T08:44:23.482Z,30.13
2023-02-12T08:46:52.076Z,29.15
2023-02-12T08:49:21.797Z,29.90
2023-02-12T08:51:50.989Z,31.08
2023-02-12T08:54:21.234Z,30.23
2023-02-12T08:56:48.024Z,31.48
2023-02-12T08:59:15.777Z,29.33
2023-02-12T09:01:43.324Z,27.40
2023-02-12T09:04:18.648Z,29.42
2023-02-12T09:06:46.190Z,27.80
2023-02-12T09:09:13.158Z,28.05
2023-02-12T09:11:39.818Z,43.15
2023-02-12T09:14:09.297Z,30.50
2023-02-12T09:16:37.082Z,27.70
2023-02-12T09:19:04.236Z,29.98
2023-02-12T09:21:30.939Z,30.48
2023-02-12T09:23:57.732Z,28.90
2023-02-12T09:26:28.262Z,28.55
2023-02-12T09:28:55.110Z,28.15
2023-02-12T09:31:27.378Z,30.08
2023-02-12T09:34:05.340Z,30.30
2023-02-12T09:36:32.868Z,28.60
2023-02-12T09:39:00.382Z,30.50
2023-02-12T09:41:45.461Z,32.15
2023-02-12T09:44:27.278Z,27.80
2023-02-12T09:47:03.696Z,25.92
2023-02-12T09:50:07.767Z,26.23
2023-02-12T09:52:35.280Z,26.48
2023-02-12T09:55:02.534Z,25.75
2023-02-12T09:57:35.726Z,24.75
2023-02-12T10:02:38.734Z,23.02
2023-02-12T10:05:10.191Z,24.70
2023-02-12T10:07:42.652Z,24.63
2023-02-12T10:10:20.462Z,25.33
2023-02-12T10:13:08.863Z,26.45
2023-02-12T10:15:39.614Z,24.05
2023-02-12T10:18:14.191Z,24.75
2023-02-12T10:20:55.253Z,23.20
2023-02-12T10:23:34.002Z,24.52
2023-02-12T10:26:22.917Z,22.60
2023-02-12T10:28:49.560Z,26.05
2023-02-12T10:31:23.288Z,24.20
2023-02-12T10:33:50.699Z,23.42
2023-02-12T10:36:44.470Z,28.00
2023-02-12T10:41:45.075Z,27.10
2023-02-12T10:44:12.015Z,29.03
2023-02-12T10:46:39.072Z,26.50
2023-02-12T10:49:06.588Z,27.13
2023-02-12T10:51:59.016Z,26.35
2023-02-12T10:54:42.288Z,27.65
2023-02-12T10:57:24.124Z,28.38
2023-02-12T10:59:53.532Z,29.17
2023-02-12T11:02:32.646Z,28.02
2023-02-12T11:05:01.070Z,27.65
2023-02-12T11:07:28.562Z,25.88
2023-02-12T11:09:56.845Z,28.63
2023-02-12T11:12:33.582Z,27.70
2023-02-12T11:15:03.517Z,25.92
2023-02-12T11:17:39.670Z,26.23
2023-02-12T11:20:06.421Z,27.17
2023-02-12T11:22:33.193Z,25.50
2023-02-12T11:25:02.515Z,26.38
2023-02-12T11:27:31.142Z,24.35
2023-02-12T11:30:17.064Z,25.40
2023-02-12T11:32:44.268Z,24.77
2023-02-12T11:35:15.456Z,22.90
2023-02-12T11:37:43.621Z,24.35
2023-02-12T11:40:24.141Z,21.85
2023-02-12T11:42:57.878Z,25.20
2023-02-12T11:45:34.487Z,22.50
2023-02-12T11:48:01.476Z,24.08
2023-02-12T11:50:30.161Z,21.70
2023-02-12T11:53:02.675Z,22.75
2023-02-12T11:55:35.363Z,24.00
2023-02-12T11:58:21.820Z,24.42
2023-02-12T12:00:54.727Z,23.60
2023-02-12T12:03:53.655Z,22.33
2023-02-12T12:06:46.370Z,26.45
2023-02-12T12:09:26.883Z,23.73
2023-02-12T12:12:05.086Z,24.75
2023-02-12T12:15:01.306Z,18.92
2023-02-12T12:18:39.329Z,13.32
2023-02-12T12:21:20.990Z,15.07
2023-02-12T12:23:53.055Z,16.67
2023-02-12T12:26:26.004Z,12.98
2023-02-12T12:29:02.163Z,15.10
2023-02-12T12:31:33.740Z,11.98
2023-02-12T12:34:03.816Z,14.35
2023-02-12T12:36:51.908Z,16.55
2023-02-12T12:39:32.644Z,19.95
2023-02-12T12:42:28.340Z,14.80
2023-02-12T12:45:10.248Z,15.93
2023-02-12T12:47:42.587Z,14.88
2023-02-12T12:50:27.684Z,15.55
2023-02-12T12:53:00.608Z,17.45
2023-02-12T12:55:38.082Z,11.60
2023-02-12T12:58:25.049Z,8.82
2023-02-12T13:01:19.056Z,10.52
2023-02-12T13:04:10.880Z,9.13
2023-02-12T13:06:56.922Z,6.53
2023-02-12T13:09:32.775Z,8.07
2023-02-12T13:12:11.311Z,6.78
2023-02-12T13:14:44.943Z,8.13
2023-02-12T13:17:23.336Z,7.85
2023-02-12T13:19:59.680Z,7.18
2023-02-12T13:22:50.334Z,6.53
2023-02-12T13:25:22.767Z,7.28
2023-02-12T13:27:50.981Z,5.22
2023-02-12T13:30:22.534Z,5.30
2023-02-12T13:33:00.308Z,5.88
2023-02-12T13:35:29.604Z,6.70
2023-02-12T13:37:57.156Z,6.85
2023-02-12T13:40:27.423Z,6.65
2023-02-12T13:43:13.032Z,6.82
2023-02-12T13:45:51.548Z,8.43
2023-02-12T13:48:35.522Z,7.25
2023-02-12T13:51:28.721Z,8.68
2023-02-12T13:54:05.426Z,7.30
2023-02-12T13:56:46.817Z,7.82
2023-02-12T13:59:50.422Z,8.45
2023-02-12T14:02:33.647Z,8.02
2023-02-12T14:05:03.031Z,7.90
2023-02-12T14:07:57.119Z,7.93
2023-02-12T14:10:28.153Z,8.10
2023-02-12T14:12:58.318Z,8.75
2023-02-12T14:15:27.876Z,8.85
2023-02-12T14:18:01.346Z,8.93
2023-02-12T14:20:32.686Z,8.85
2023-02-12T14:23:19.959Z,8.30
2023-02-12T14:25:58.775Z,9.15
2023-02-12T14:28:31.606Z,7.80
2023-02-12T14:31:20.194Z,9.73
2023-02-12T14:33:51.575Z,8.35
2023-02-12T14:36:38.943Z,9.43
2023-02-12T14:39:29.018Z,8.68
2023-02-12T14:42:15.920Z,8.15
2023-02-12T14:44:56.555Z,8.82
2023-02-12T14:47:28.896Z,7.50
2023-02-12T14:49:58.023Z,9.27
2023-02-12T14:52:39.708Z,8.65
2023-02-12T14:55:19.221Z,9.88
2023-02-12T14:57:46.428Z,11.10
2023-02-12T15:00:24.236Z,9.68
2023-02-12T15:02:54.960Z,10.00
2023-02-12T15:05:28.118Z,10.13
2023-02-12T15:10:36.066Z,9.98
2023-02-12T15:13:09.003Z,10.50
2023-02-12T15:15:43.038Z,9.38
2023-02-12T15:18:16.458Z,8.55
2023-02-12T15:21:12.917Z,9.55
2023-02-12T15:23:45.006Z,8.40
2023-02-12T15:26:20.640Z,8.95
2023-02-12T15:28:49.859Z,9.52
2023-02-12T15:31:19.884Z,8.10
2023-02-12T15:33:49.974Z,8.52
2023-02-12T15:36:20.658Z,8.50
2023-02-12T15:38:53.743Z,8.45
2023-02-12T15:41:32.616Z,8.93
2023-02-12T15:44:23.832Z,8.43
2023-02-12T15:47:08.608Z,8.00
2023-02-12T15:49:37.098Z,7.38
2023-02-12T15:52:24.962Z,7.20
2023-02-12T15:54:51.983Z,7.75
2023-02-12T15:57:23.774Z,7.97
2023-02-12T15:59:52.243Z,6.97
2023-02-12T16:02:28.168Z,6.40
2023-02-12T16:04:58.243Z,6.38
2023-02-12T16:07:26.664Z,6.03
2023-02-12T16:09:56.494Z,6.18
2023-02-12T16:12:27.350Z,7.18
2023-02-12T16:14:55.630Z,7.90
2023-02-12T16:17:25.311Z,6.78
2023-02-12T16:19:58.021Z,7.78
2023-02-12T16:22:37.251Z,6.25
2023-02-12T16:25:05.024Z,6.82
2023-02-12T16:27:33.793Z,7.10
2023-02-12T16:30:28.946Z,8.43
2023-02-12T16:32:56.412Z,9.27
2023-02-12T16:35:30.639Z,9.88
2023-02-12T16:38:04.077Z,11.93
2023-02-12T16:40:33.614Z,10.13
2023-02-12T16:43:04.138Z,9.02
2023-02-12T16:45:36.129Z,9.50
2023-02-12T16:48:24.979Z,10.05
2023-02-12T16:50:57.555Z,10.38
2023-02-12T16:53:30.113Z,11.30
2023-02-12T16:55:58.121Z,10.70
2023-02-12T16:58:26.396Z,12.02
2023-02-12T17:00:53.940Z,11.68
2023-02-12T17:03:21.038Z,13.57
2023-02-12T17:05:49.325Z,11.35
2023-02-12T17:08:18.378Z,12.40
2023-02-12T17:10:45.227Z,13.73
2023-02-12T17:13:12.126Z,12.55
2023-02-12T17:15:43.594Z,13.70
2023-02-12T17:18:11.401Z,13.32
2023-02-12T17:20:38.831Z,13.25
2023-02-12T17:23:05.609Z,13.98
2023-02-12T17:25:34.555Z,15.65
2023-02-12T17:28:01.481Z,14.52
2023-02-12T17:30:28.989Z,14.40
2023-02-12T17:32:55.672Z,14.82
2023-02-12T17:35:22.441Z,13.77
2023-02-12T17:37:49.232Z,14.65
2023-02-12T17:40:16.320Z,14.60
2023-02-12T17:42:43.007Z,15.30
2023-02-12T17:45:09.953Z,13.80
2023-02-12T17:47:39.842Z,16.33
2023-02-12T17:50:09.174Z,14.73
2023-02-12T17:52:37.790Z,14.75
2023-02-12T17:55:06.631Z,14.52
2023-02-12T17:57:33.634Z,14.48
2023-02-12T18:00:00.419Z,14.48
2023-02-12T18:02:27.344Z,15.02
2023-02-12T18:04:54.053Z,15.25
2023-02-12T18:07:20.885Z,14.60
2023-02-12T18:09:47.672Z,14.35
2023-02-12T18:12:14.672Z,14.73
2023-02-12T18:14:41.768Z,16.42
2023-02-12T18:17:08.638Z,14.65
2023-02-12T18:19:35.797Z,13.98
2023-02-12T18:22:02.654Z,13.80
2023-02-12T18:24:31.548Z,14.30
2023-02-12T18:26:58.398Z,14.93
2023-02-12T18:29:25.195Z,13.68
2023-02-12T18:31:54.828Z,14.70
2023-02-12T18:34:22.102Z,14.60
2023-02-12T18:36:49.210Z,15.65
2023-02-12T18:39:16.617Z,13.77
2023-02-12T18:41:43.332Z,13.80
2023-02-12T18:44:10.230Z,12.93
2023-02-12T18:46:37.430Z,12.50
2023-02-12T18:49:04.377Z,13.52
2023-02-12T18:51:36.514Z,13.73
2023-02-12T18:54:07.485Z,13.77
2023-02-12T18:56:38.011Z,13.52
2023-02-12T18:59:05.864Z,14.85
2023-02-12T19:01:33.941Z,12.45
2023-02-12T19:04:02.918Z,14.48
2023-02-12T19:06:30.833Z,14.05
2023-02-12T19:08:59.172Z,12.38
2023-02-12T19:11:28.060Z,14.68
2023-02-12T19:13:54.888Z,13.00
2023-02-12T19:16:23.700Z,12.63
2023-02-12T19:18:51.313Z,13.30
2023-02-12T19:21:18.773Z,13.05
2023-02-12T19:23:45.644Z,13.35
2023-02-12T19:26:15.072Z,14.65
2023-02-12T19:28:44.881Z,13.55
2023-02-12T19:31:20.024Z,14.68
2023-02-12T19:33:50.329Z,13.57
2023-02-12T19:36:18.912Z,11.80
2023-02-12T19:38:46.731Z,13.40
2023-02-12T19:41:16.815Z,14.25
2023-02-12T19:43:43.729Z,13.70
2023-02-12T19:46:16.571Z,13.32
2023-02-12T19:48:44.560Z,12.73
2023-02-12T19:51:21.652Z,13.90
2023-02-12T19:53:48.973Z,14.82
2023-02-12T19:56:16.238Z,14.07
2023-02-12T19:58:42.924Z,12.18
2023-02-12T20:01:12.643Z,13.45
2023-02-12T20:03:39.676Z,12.73
2023-02-12T20:06:11.603Z,14.18
2023-02-12T20:08:39.822Z,12.57
2023-02-12T20:11:11.064Z,11.73
2023-02-12T20:13:38.067Z,12.32
2023-02-12T20:16:09.149Z,10.88
2023-02-12T20:18:36.238Z,12.02
2023-02-12T20:21:12.112Z,12.40
2023-02-12T20:23:38.849Z,11.30
2023-02-12T20:26:06.766Z,11.13
2023-02-12T20:28:34.883Z,12.00
2023-02-12T20:31:19.360Z,11.88
2023-02-12T20:33:46.676Z,12.13
2023-02-12T20:36:14.239Z,14.13
2023-02-12T20:38:42.416Z,11.68
2023-02-12T20:41:09.683Z,10.95
2023-02-12T20:43:37.380Z,12.80
2023-02-12T20:46:09.456Z,13.63
2023-02-12T20:48:36.777Z,12.57
2023-02-12T20:51:05.729Z,12.30
2023-02-12T20:53:35.129Z,11.15
2023-02-12T20:56:13.245Z,11.77
2023-02-12T20:58:41.106Z,12.43
2023-02-12T21:01:09.494Z,12.18
2023-02-12T21:03:36.845Z,12.68
2023-02-12T21:06:04.366Z,11.95
2023-02-12T21:08:31.164Z,11.52
2023-02-12T21:11:02.479Z,11.45
2023-02-12T21:13:29.204Z,12.77
2023-02-12T21:16:26.676Z,14.13
2023-02-12T21:18:53.920Z,12.80
2023-02-12T21:21:25.670Z,13.00
2023-02-12T21:23:55.390Z,14.60
2023-02-12T21:26:23.906Z,14.05
2023-02-12T21:28:51.876Z,12.43
2023-02-12T21:31:21.719Z,12.93
2023-02-12T21:33:49.733Z,11.85
2023-02-12T21:36:19.167Z,12.57
2023-02-12T21:38:47.052Z,13.13
2023-02-12T21:41:20.524Z,14.48
2023-02-12T21:43:50.004Z,14.13
2023-02-12T21:46:18.512Z,14.75
2023-02-12T21:48:45.561Z,13.98
2023-02-12T21:51:30.702Z,13.40
2023-02-12T21:53:59.694Z,13.55
2023-02-12T21:56:27.157Z,13.40
2023-02-12T21:58:54.587Z,12.90
2023-02-12T22:01:24.049Z,14.32
2023-02-12T22:03:51.535Z,14.65
2023-02-12T22:06:19.555Z,13.85
2023-02-12T22:08:46.831Z,13.88
2023-02-12T22:11:14.070Z,14.35
2023-02-12T22:13:41.067Z,15.88
2023-02-12T22:16:16.406Z,15.30
2023-02-12T22:18:44.476Z,16.50
2023-02-12T22:21:13.565Z,16.00
2023-02-12T22:23:40.952Z,15.98
2023-02-12T22:26:12.894Z,17.55
2023-02-12T22:28:41.622Z,15.75
2023-02-12T22:31:09.624Z,14.55
2023-02-12T22:33:36.332Z,16.00
2023-02-12T22:36:05.492Z,17.15
2023-02-12T22:38:39.478Z,15.65
2023-02-12T22:41:07.583Z,16.55
2023-02-12T22:43:35.812Z,17.15
2023-02-12T22:46:02.747Z,17.23
2023-02-12T22:48:29.543Z,17.08
2023-02-12T22:50:57.033Z,15.75
2023-02-12T22:53:24.868Z,17.25
2023-02-12T22:55:52.377Z,18.23
2023-02-12T22:58:19.261Z,17.52
2023-02-12T23:00:46.029Z,17.50
2023-02-12T23:03:12.756Z,16.88
2023-02-12T23:05:39.614Z,17.27
2023-02-12T23:08:06.749Z,17.05
2023-02-12T23:10:33.587Z,18.58
2023-02-12T23:13:02.053Z,17.92
2023-02-12T23:15:29.508Z,18.98
2023-02-12T23:17:56.251Z,17.85
2023-02-12T23:20:22.888Z,17.80
2023-02-12T23:22:49.566Z,18.65
2023-02-12T23:25:16.300Z,18.27
2023-02-12T23:27:43.006Z,18.92
2023-02-12T23:30:10.733Z,19.55
2023-02-12T23:32:37.402Z,18.02
2023-02-12T23:35:04.335Z,20.15
2023-02-12T23:37:30.989Z,19.95
2023-02-12T23:39:57.664Z,19.10
2023-02-12T23:42:24.372Z,19.63
2023-02-12T23:44:51.080Z,19.65
2023-02-12T23:47:17.703Z,20.60
2023-02-12T23:49:44.502Z,19.00
2023-02-12T23:52:11.305Z,20.90
2023-02-12T23:54:38.069Z,20.85
2023-02-12T23:57:04.773Z,19.20
2023-02-12T23:59:31.667Z,19.73
